sensor_id;sensor_type;location;lat;lon;timestamp;P1;durP1;ratioP1;P2;durP2;ratioP2
69588;SDS011;56792;50.644;17.984;2024-03-25T00:00:34;14.00;;;6.80;;
69588;SDS011;56792;50.644;17.984;2024-03-25T00:03:05;15.30;;;7.10;;
69588;SDS011;56792;50.644;17.984;2024-03-25T00:05:36;14.30;;;7.50;;
69588;SDS011;56792;50.644;17.984;2024-03-25T00:08:07;14.20;;;7.80;;
69588;SDS011;56792;50.644;17.984;2024-03-25T00:10:37;13.40;;;6.80;;
69588;SDS011;56792;50.644;17.984;2024-03-25T00:13:08;13.60;;;6.90;;
69588;SDS011;56792;50.644;17.984;2024-03-25T00:15:39;15.00;;;7.10;;
69588;SDS011;56792;50.644;17.984;2024-03-25T00:18:11;11.30;;;5.70;;
69588;SDS011;56792;50.644;17.984;2024-03-25T00:20:42;9.60;;;6.00;;
69588;SDS011;56792;50.644;17.984;2024-03-25T00:23:12;10.10;;;5.40;;
69588;SDS011;56792;50.644;17.984;2024-03-25T00:25:43;10.90;;;6.40;;
69588;SDS011;56792;50.644;17.984;2024-03-25T00:28:14;13.30;;;6.40;;
69588;SDS011;56792;50.644;17.984;2024-03-25T00:30:44;11.40;;;5.70;;
69588;SDS011;56792;50.644;17.984;2024-03-25T00:33:15;13.40;;;6.40;;
69588;SDS011;56792;50.644;17.984;2024-03-25T00:35:45;11.90;;;6.30;;
69588;SDS011;56792;50.644;17.984;2024-03-25T00:38:17;11.30;;;6.80;;
69588;SDS011;56792;50.644;17.984;2024-03-25T00:40:48;11.40;;;6.40;;
69588;SDS011;56792;50.644;17.984;2024-03-25T00:43:19;10.10;;;5.60;;
69588;SDS011;56792;50.644;17.984;2024-03-25T00:45:49;11.40;;;6.30;;
69588;SDS011;56792;50.644;17.984;2024-03-25T00:48:20;11.30;;;5.90;;
69588;SDS011;56792;50.644;17.984;2024-03-25T00:50:50;10.40;;;5.80;;
69588;SDS011;56792;50.644;17.984;2024-03-25T00:53:21;11.40;;;6.10;;
69588;SDS011;56792;50.644;17.984;2024-03-25T00:55:52;11.50;;;6.40;;
69588;SDS011;56792;50.644;17.984;2024-03-25T00:58:22;14.20;;;6.50;;
69588;SDS011;56792;50.644;17.984;2024-03-25T01:00:53;13.80;;;5.90;;
69588;SDS011;56792;50.644;17.984;2024-03-25T01:03:24;11.30;;;6.20;;
69588;SDS011;56792;50.644;17.984;2024-03-25T01:05:54;13.20;;;6.00;;
69588;SDS011;56792;50.644;17.984;2024-03-25T01:08:25;8.10;;;5.10;;
69588;SDS011;56792;50.644;17.984;2024-03-25T01:10:55;12.20;;;6.00;;
69588;SDS011;56792;50.644;17.984;2024-03-25T01:13:26;11.30;;;5.20;;
69588;SDS011;56792;50.644;17.984;2024-03-25T01:15:56;8.80;;;5.10;;
69588;SDS011;56792;50.644;17.984;2024-03-25T01:18:27;9.80;;;5.70;;
69588;SDS011;56792;50.644;17.984;2024-03-25T01:20:57;8.90;;;4.80;;
69588;SDS011;56792;50.644;17.984;2024-03-25T01:23:28;9.50;;;5.30;;
69588;SDS011;56792;50.644;17.984;2024-03-25T01:25:58;10.80;;;5.40;;
69588;SDS011;56792;50.644;17.984;2024-03-25T01:28:29;8.90;;;5.30;;
69588;SDS011;56792;50.644;17.984;2024-03-25T01:30:59;9.00;;;5.60;;
69588;SDS011;56792;50.644;17.984;2024-03-25T01:33:30;11.60;;;5.60;;
69588;SDS011;56792;50.644;17.984;2024-03-25T01:36:00;10.60;;;5.90;;
69588;SDS011;56792;50.644;17.984;2024-03-25T01:38:31;9.90;;;5.70;;
69588;SDS011;56792;50.644;17.984;2024-03-25T01:41:09;11.70;;;5.60;;
69588;SDS011;56792;50.644;17.984;2024-03-25T01:43:40;10.80;;;6.00;;
69588;SDS011;56792;50.644;17.984;2024-03-25T01:46:11;9.90;;;5.60;;
69588;SDS011;56792;50.644;17.984;2024-03-25T01:48:42;11.30;;;5.90;;
69588;SDS011;56792;50.644;17.984;2024-03-25T01:51:14;7.40;;;5.00;;
69588;SDS011;56792;50.644;17.984;2024-03-25T01:53:47;8.10;;;5.20;;
69588;SDS011;56792;50.644;17.984;2024-03-25T01:56:19;8.80;;;5.60;;
69588;SDS011;56792;50.644;17.984;2024-03-25T01:58:51;9.10;;;4.90;;
69588;SDS011;56792;50.644;17.984;2024-03-25T02:01:22;11.20;;;5.20;;
69588;SDS011;56792;50.644;17.984;2024-03-25T02:03:54;7.80;;;5.10;;
69588;SDS011;56792;50.644;17.984;2024-03-25T02:06:27;9.30;;;5.00;;
69588;SDS011;56792;50.644;17.984;2024-03-25T02:08:59;10.50;;;5.40;;
69588;SDS011;56792;50.644;17.984;2024-03-25T02:11:30;15.00;;;6.60;;
69588;SDS011;56792;50.644;17.984;2024-03-25T02:14:01;18.30;;;7.50;;
69588;SDS011;56792;50.644;17.984;2024-03-25T02:16:32;16.90;;;6.50;;
69588;SDS011;56792;50.644;17.984;2024-03-25T02:19:02;13.00;;;6.20;;
69588;SDS011;56792;50.644;17.984;2024-03-25T02:21:33;10.40;;;5.50;;
69588;SDS011;56792;50.644;17.984;2024-03-25T02:24:05;8.20;;;4.40;;
69588;SDS011;56792;50.644;17.984;2024-03-25T02:26:38;8.00;;;4.60;;
69588;SDS011;56792;50.644;17.984;2024-03-25T02:29:11;8.10;;;4.50;;
69588;SDS011;56792;50.644;17.984;2024-03-25T02:31:42;10.30;;;4.70;;
69588;SDS011;56792;50.644;17.984;2024-03-25T02:34:12;16.10;;;5.20;;
69588;SDS011;56792;50.644;17.984;2024-03-25T02:36:43;8.90;;;4.80;;
69588;SDS011;56792;50.644;17.984;2024-03-25T02:39:13;8.50;;;5.30;;
69588;SDS011;56792;50.644;17.984;2024-03-25T02:41:44;9.20;;;5.20;;
69588;SDS011;56792;50.644;17.984;2024-03-25T02:44:15;9.30;;;4.50;;
69588;SDS011;56792;50.644;17.984;2024-03-25T02:46:46;8.60;;;5.50;;
69588;SDS011;56792;50.644;17.984;2024-03-25T02:49:16;7.80;;;5.30;;
69588;SDS011;56792;50.644;17.984;2024-03-25T02:51:47;7.80;;;5.30;;
69588;SDS011;56792;50.644;17.984;2024-03-25T02:54:17;8.00;;;4.90;;
69588;SDS011;56792;50.644;17.984;2024-03-25T02:56:48;8.80;;;5.20;;
69588;SDS011;56792;50.644;17.984;2024-03-25T02:59:19;9.40;;;5.90;;
69588;SDS011;56792;50.644;17.984;2024-03-25T03:01:50;8.80;;;5.10;;
69588;SDS011;56792;50.644;17.984;2024-03-25T03:04:20;7.40;;;4.90;;
69588;SDS011;56792;50.644;17.984;2024-03-25T03:06:51;7.40;;;5.10;;
69588;SDS011;56792;50.644;17.984;2024-03-25T03:09:22;9.10;;;5.20;;
69588;SDS011;56792;50.644;17.984;2024-03-25T03:11:53;8.20;;;6.20;;
69588;SDS011;56792;50.644;17.984;2024-03-25T03:14:24;11.20;;;6.30;;
69588;SDS011;56792;50.644;17.984;2024-03-25T03:16:54;9.10;;;6.20;;
69588;SDS011;56792;50.644;17.984;2024-03-25T03:19:27;7.90;;;5.40;;
69588;SDS011;56792;50.644;17.984;2024-03-25T03:21:57;9.20;;;5.40;;
69588;SDS011;56792;50.644;17.984;2024-03-25T03:24:28;8.50;;;5.40;;
69588;SDS011;56792;50.644;17.984;2024-03-25T03:26:58;8.70;;;5.20;;
69588;SDS011;56792;50.644;17.984;2024-03-25T03:29:29;7.50;;;5.20;;
69588;SDS011;56792;50.644;17.984;2024-03-25T03:31:59;8.30;;;5.00;;
69588;SDS011;56792;50.644;17.984;2024-03-25T03:34:30;7.60;;;5.10;;
69588;SDS011;56792;50.644;17.984;2024-03-25T03:37:00;8.10;;;5.20;;
69588;SDS011;56792;50.644;17.984;2024-03-25T03:39:31;6.70;;;4.50;;
69588;SDS011;56792;50.644;17.984;2024-03-25T03:42:02;6.70;;;4.70;;
69588;SDS011;56792;50.644;17.984;2024-03-25T03:44:32;7.10;;;4.40;;
69588;SDS011;56792;50.644;17.984;2024-03-25T03:47:03;6.00;;;4.10;;
69588;SDS011;56792;50.644;17.984;2024-03-25T03:49:34;8.00;;;4.80;;
69588;SDS011;56792;50.644;17.984;2024-03-25T03:52:05;6.30;;;4.40;;
69588;SDS011;56792;50.644;17.984;2024-03-25T03:54:36;6.80;;;4.60;;
69588;SDS011;56792;50.644;17.984;2024-03-25T03:57:06;7.00;;;4.40;;
69588;SDS011;56792;50.644;17.984;2024-03-25T03:59:37;6.20;;;3.80;;
69588;SDS011;56792;50.644;17.984;2024-03-25T04:02:07;5.90;;;3.90;;
69588;SDS011;56792;50.644;17.984;2024-03-25T04:04:38;7.70;;;5.20;;
69588;SDS011;56792;50.644;17.984;2024-03-25T04:07:08;9.90;;;5.50;;
69588;SDS011;56792;50.644;17.984;2024-03-25T04:09:39;11.60;;;5.90;;
69588;SDS011;56792;50.644;17.984;2024-03-25T04:12:09;7.20;;;4.90;;
69588;SDS011;56792;50.644;17.984;2024-03-25T04:14:40;7.80;;;5.00;;
69588;SDS011;56792;50.644;17.984;2024-03-25T04:17:10;7.50;;;4.70;;
69588;SDS011;56792;50.644;17.984;2024-03-25T04:19:41;7.70;;;5.50;;
69588;SDS011;56792;50.644;17.984;2024-03-25T04:22:11;10.80;;;6.20;;
69588;SDS011;56792;50.644;17.984;2024-03-25T04:24:42;9.90;;;5.50;;
69588;SDS011;56792;50.644;17.984;2024-03-25T04:27:12;8.50;;;5.30;;
69588;SDS011;56792;50.644;17.984;2024-03-25T04:29:43;8.50;;;5.20;;
69588;SDS011;56792;50.644;17.984;2024-03-25T04:32:14;9.00;;;5.70;;
69588;SDS011;56792;50.644;17.984;2024-03-25T04:34:45;8.70;;;5.20;;
69588;SDS011;56792;50.644;17.984;2024-03-25T04:37:15;9.60;;;6.10;;
69588;SDS011;56792;50.644;17.984;2024-03-25T04:39:46;9.20;;;6.70;;
69588;SDS011;56792;50.644;17.984;2024-03-25T04:42:20;10.00;;;5.90;;
69588;SDS011;56792;50.644;17.984;2024-03-25T04:44:50;9.30;;;6.70;;
69588;SDS011;56792;50.644;17.984;2024-03-25T04:47:21;10.10;;;6.00;;
69588;SDS011;56792;50.644;17.984;2024-03-25T04:49:52;10.40;;;6.20;;
69588;SDS011;56792;50.644;17.984;2024-03-25T04:52:22;9.20;;;6.50;;
69588;SDS011;56792;50.644;17.984;2024-03-25T04:54:53;9.30;;;5.80;;
69588;SDS011;56792;50.644;17.984;2024-03-25T04:57:24;11.90;;;6.60;;
69588;SDS011;56792;50.644;17.984;2024-03-25T04:59:54;8.60;;;5.90;;
69588;SDS011;56792;50.644;17.984;2024-03-25T05:02:26;9.60;;;7.10;;
69588;SDS011;56792;50.644;17.984;2024-03-25T05:04:56;8.30;;;6.50;;
69588;SDS011;56792;50.644;17.984;2024-03-25T05:07:26;9.00;;;5.80;;
69588;SDS011;56792;50.644;17.984;2024-03-25T05:09:57;10.50;;;6.40;;
69588;SDS011;56792;50.644;17.984;2024-03-25T05:12:27;11.30;;;6.90;;
69588;SDS011;56792;50.644;17.984;2024-03-25T05:14:58;9.90;;;6.40;;
69588;SDS011;56792;50.644;17.984;2024-03-25T05:17:29;12.40;;;6.70;;
69588;SDS011;56792;50.644;17.984;2024-03-25T05:19:59;11.10;;;6.30;;
69588;SDS011;56792;50.644;17.984;2024-03-25T05:22:32;9.00;;;6.40;;
69588;SDS011;56792;50.644;17.984;2024-03-25T05:25:03;9.10;;;5.80;;
69588;SDS011;56792;50.644;17.984;2024-03-25T05:27:35;8.50;;;5.90;;
69588;SDS011;56792;50.644;17.984;2024-03-25T05:30:07;8.70;;;6.20;;
69588;SDS011;56792;50.644;17.984;2024-03-25T05:32:38;8.00;;;5.80;;
69588;SDS011;56792;50.644;17.984;2024-03-25T05:35:09;8.60;;;6.00;;
69588;SDS011;56792;50.644;17.984;2024-03-25T05:37:39;9.10;;;6.30;;
69588;SDS011;56792;50.644;17.984;2024-03-25T05:40:11;8.00;;;5.90;;
69588;SDS011;56792;50.644;17.984;2024-03-25T05:42:45;9.50;;;5.90;;
69588;SDS011;56792;50.644;17.984;2024-03-25T05:45:16;8.00;;;5.90;;
69588;SDS011;56792;50.644;17.984;2024-03-25T05:47:46;7.30;;;5.20;;
69588;SDS011;56792;50.644;17.984;2024-03-25T05:50:18;7.20;;;5.00;;
69588;SDS011;56792;50.644;17.984;2024-03-25T05:52:49;10.50;;;5.70;;
69588;SDS011;56792;50.644;17.984;2024-03-25T05:55:19;7.10;;;5.40;;
69588;SDS011;56792;50.644;17.984;2024-03-25T05:57:50;7.80;;;5.60;;
69588;SDS011;56792;50.644;17.984;2024-03-25T06:00:21;8.20;;;5.70;;
69588;SDS011;56792;50.644;17.984;2024-03-25T06:02:52;9.20;;;5.40;;
69588;SDS011;56792;50.644;17.984;2024-03-25T06:05:23;7.40;;;5.20;;
69588;SDS011;56792;50.644;17.984;2024-03-25T06:07:53;7.40;;;5.10;;
69588;SDS011;56792;50.644;17.984;2024-03-25T06:10:24;8.50;;;5.20;;
69588;SDS011;56792;50.644;17.984;2024-03-25T06:12:55;6.80;;;4.90;;
69588;SDS011;56792;50.644;17.984;2024-03-25T06:15:25;6.40;;;4.50;;
69588;SDS011;56792;50.644;17.984;2024-03-25T06:17:55;6.60;;;4.90;;
69588;SDS011;56792;50.644;17.984;2024-03-25T06:20:26;6.90;;;5.20;;
69588;SDS011;56792;50.644;17.984;2024-03-25T06:22:56;5.60;;;4.40;;
69588;SDS011;56792;50.644;17.984;2024-03-25T06:25:27;7.00;;;5.30;;
69588;SDS011;56792;50.644;17.984;2024-03-25T06:27:58;6.30;;;4.90;;
69588;SDS011;56792;50.644;17.984;2024-03-25T06:30:28;7.70;;;4.90;;
69588;SDS011;56792;50.644;17.984;2024-03-25T06:33:16;6.40;;;4.70;;
69588;SDS011;56792;50.644;17.984;2024-03-25T06:36:04;5.10;;;3.90;;
69588;SDS011;56792;50.644;17.984;2024-03-25T06:38:35;6.60;;;4.60;;
69588;SDS011;56792;50.644;17.984;2024-03-25T06:41:06;5.10;;;3.90;;
69588;SDS011;56792;50.644;17.984;2024-03-25T06:43:36;5.60;;;4.40;;
69588;SDS011;56792;50.644;17.984;2024-03-25T06:46:08;5.70;;;4.30;;
69588;SDS011;56792;50.644;17.984;2024-03-25T06:48:38;5.90;;;4.70;;
69588;SDS011;56792;50.644;17.984;2024-03-25T06:51:09;7.20;;;4.10;;
69588;SDS011;56792;50.644;17.984;2024-03-25T06:53:39;5.00;;;3.80;;
69588;SDS011;56792;50.644;17.984;2024-03-25T06:56:10;4.70;;;3.70;;
69588;SDS011;56792;50.644;17.984;2024-03-25T06:58:40;5.00;;;4.10;;
69588;SDS011;56792;50.644;17.984;2024-03-25T07:01:11;5.20;;;4.00;;
69588;SDS011;56792;50.644;17.984;2024-03-25T07:03:42;5.20;;;4.00;;
69588;SDS011;56792;50.644;17.984;2024-03-25T07:06:12;5.10;;;3.40;;
69588;SDS011;56792;50.644;17.984;2024-03-25T07:08:43;4.80;;;3.50;;
69588;SDS011;56792;50.644;17.984;2024-03-25T07:11:15;7.10;;;3.40;;
69588;SDS011;56792;50.644;17.984;2024-03-25T07:13:46;6.20;;;3.70;;
69588;SDS011;56792;50.644;17.984;2024-03-25T07:16:17;4.80;;;3.60;;
69588;SDS011;56792;50.644;17.984;2024-03-25T07:18:47;4.70;;;3.10;;
69588;SDS011;56792;50.644;17.984;2024-03-25T07:21:17;4.30;;;3.80;;
69588;SDS011;56792;50.644;17.984;2024-03-25T07:23:48;4.10;;;3.60;;
69588;SDS011;56792;50.644;17.984;2024-03-25T07:26:19;3.90;;;2.90;;
69588;SDS011;56792;50.644;17.984;2024-03-25T07:28:49;4.90;;;3.30;;
69588;SDS011;56792;50.644;17.984;2024-03-25T07:31:20;3.90;;;2.90;;
69588;SDS011;56792;50.644;17.984;2024-03-25T07:33:50;3.80;;;2.80;;
69588;SDS011;56792;50.644;17.984;2024-03-25T07:36:21;3.80;;;3.20;;
69588;SDS011;56792;50.644;17.984;2024-03-25T07:38:51;3.60;;;2.70;;
69588;SDS011;56792;50.644;17.984;2024-03-25T07:41:22;4.70;;;3.10;;
69588;SDS011;56792;50.644;17.984;2024-03-25T07:43:52;5.20;;;3.40;;
69588;SDS011;56792;50.644;17.984;2024-03-25T07:46:23;3.40;;;2.70;;
69588;SDS011;56792;50.644;17.984;2024-03-25T07:48:53;3.90;;;3.00;;
69588;SDS011;56792;50.644;17.984;2024-03-25T07:51:24;4.30;;;3.00;;
69588;SDS011;56792;50.644;17.984;2024-03-25T07:53:55;3.80;;;3.10;;
69588;SDS011;56792;50.644;17.984;2024-03-25T07:56:25;4.60;;;2.70;;
69588;SDS011;56792;50.644;17.984;2024-03-25T07:58:56;3.80;;;3.10;;
69588;SDS011;56792;50.644;17.984;2024-03-25T08:01:27;4.10;;;3.40;;
69588;SDS011;56792;50.644;17.984;2024-03-25T08:03:58;4.00;;;3.10;;
69588;SDS011;56792;50.644;17.984;2024-03-25T08:06:30;5.60;;;3.80;;
69588;SDS011;56792;50.644;17.984;2024-03-25T08:09:00;4.20;;;3.10;;
69588;SDS011;56792;50.644;17.984;2024-03-25T08:11:32;3.70;;;3.20;;
69588;SDS011;56792;50.644;17.984;2024-03-25T08:14:03;3.80;;;3.40;;
69588;SDS011;56792;50.644;17.984;2024-03-25T08:16:34;4.00;;;3.20;;
69588;SDS011;56792;50.644;17.984;2024-03-25T08:19:04;3.70;;;3.00;;
69588;SDS011;56792;50.644;17.984;2024-03-25T08:21:35;4.10;;;3.50;;
69588;SDS011;56792;50.644;17.984;2024-03-25T08:24:06;3.90;;;3.40;;
69588;SDS011;56792;50.644;17.984;2024-03-25T08:26:36;4.40;;;2.90;;
69588;SDS011;56792;50.644;17.984;2024-03-25T08:29:06;4.20;;;3.40;;
69588;SDS011;56792;50.644;17.984;2024-03-25T08:31:37;4.20;;;3.00;;
69588;SDS011;56792;50.644;17.984;2024-03-25T08:34:08;4.20;;;3.50;;
69588;SDS011;56792;50.644;17.984;2024-03-25T08:36:38;4.70;;;3.30;;
69588;SDS011;56792;50.644;17.984;2024-03-25T08:39:08;5.40;;;3.50;;
69588;SDS011;56792;50.644;17.984;2024-03-25T08:41:39;6.70;;;3.90;;
69588;SDS011;56792;50.644;17.984;2024-03-25T08:44:09;10.80;;;7.10;;
69588;SDS011;56792;50.644;17.984;2024-03-25T08:46:41;23.60;;;12.30;;
69588;SDS011;56792;50.644;17.984;2024-03-25T08:49:11;14.10;;;7.80;;
69588;SDS011;56792;50.644;17.984;2024-03-25T08:51:41;18.40;;;9.10;;
69588;SDS011;56792;50.644;17.984;2024-03-25T08:54:12;20.50;;;11.10;;
69588;SDS011;56792;50.644;17.984;2024-03-25T08:56:42;19.00;;;10.60;;
69588;SDS011;56792;50.644;17.984;2024-03-25T08:59:13;8.80;;;6.40;;
69588;SDS011;56792;50.644;17.984;2024-03-25T09:01:44;4.70;;;3.90;;
69588;SDS011;56792;50.644;17.984;2024-03-25T09:04:15;5.40;;;3.30;;
69588;SDS011;56792;50.644;17.984;2024-03-25T09:06:45;5.20;;;4.30;;
69588;SDS011;56792;50.644;17.984;2024-03-25T09:09:16;5.10;;;3.30;;
69588;SDS011;56792;50.644;17.984;2024-03-25T09:12:05;5.90;;;3.50;;
69588;SDS011;56792;50.644;17.984;2024-03-25T09:14:35;3.80;;;3.20;;
69588;SDS011;56792;50.644;17.984;2024-03-25T09:17:06;3.80;;;3.00;;
69588;SDS011;56792;50.644;17.984;2024-03-25T09:19:37;5.60;;;3.90;;
69588;SDS011;56792;50.644;17.984;2024-03-25T09:22:07;3.50;;;2.70;;
69588;SDS011;56792;50.644;17.984;2024-03-25T09:24:38;3.50;;;2.90;;
69588;SDS011;56792;50.644;17.984;2024-03-25T09:27:08;3.50;;;2.50;;
69588;SDS011;56792;50.644;17.984;2024-03-25T09:29:39;3.50;;;2.80;;
69588;SDS011;56792;50.644;17.984;2024-03-25T09:32:09;3.70;;;3.20;;
69588;SDS011;56792;50.644;17.984;2024-03-25T09:34:40;3.60;;;3.20;;
69588;SDS011;56792;50.644;17.984;2024-03-25T09:37:12;3.30;;;3.00;;
69588;SDS011;56792;50.644;17.984;2024-03-25T09:39:43;3.70;;;2.70;;
69588;SDS011;56792;50.644;17.984;2024-03-25T09:42:17;4.20;;;3.00;;
69588;SDS011;56792;50.644;17.984;2024-03-25T09:44:56;4.10;;;3.30;;
69588;SDS011;56792;50.644;17.984;2024-03-25T09:47:28;3.80;;;3.20;;
69588;SDS011;56792;50.644;17.984;2024-03-25T09:50:00;4.20;;;2.90;;
69588;SDS011;56792;50.644;17.984;2024-03-25T09:52:33;4.30;;;3.60;;
69588;SDS011;56792;50.644;17.984;2024-03-25T09:55:04;4.10;;;2.70;;
69588;SDS011;56792;50.644;17.984;2024-03-25T09:57:35;3.70;;;3.00;;
69588;SDS011;56792;50.644;17.984;2024-03-25T10:00:10;4.20;;;3.30;;
69588;SDS011;56792;50.644;17.984;2024-03-25T10:02:43;4.20;;;3.30;;
69588;SDS011;56792;50.644;17.984;2024-03-25T10:05:14;4.90;;;3.20;;
69588;SDS011;56792;50.644;17.984;2024-03-25T10:07:45;4.20;;;3.10;;
69588;SDS011;56792;50.644;17.984;2024-03-25T10:10:20;3.40;;;2.70;;
69588;SDS011;56792;50.644;17.984;2024-03-25T10:12:51;4.40;;;3.40;;
69588;SDS011;56792;50.644;17.984;2024-03-25T10:15:23;3.50;;;3.00;;
69588;SDS011;56792;50.644;17.984;2024-03-25T10:17:55;4.30;;;3.70;;
69588;SDS011;56792;50.644;17.984;2024-03-25T10:20:26;4.60;;;3.40;;
69588;SDS011;56792;50.644;17.984;2024-03-25T10:22:56;3.70;;;3.10;;
69588;SDS011;56792;50.644;17.984;2024-03-25T10:25:28;4.40;;;3.40;;
69588;SDS011;56792;50.644;17.984;2024-03-25T10:28:00;5.30;;;3.80;;
69588;SDS011;56792;50.644;17.984;2024-03-25T10:30:31;5.20;;;3.70;;
69588;SDS011;56792;50.644;17.984;2024-03-25T10:33:03;4.70;;;3.70;;
69588;SDS011;56792;50.644;17.984;2024-03-25T10:35:35;5.00;;;3.90;;
69588;SDS011;56792;50.644;17.984;2024-03-25T10:38:09;5.40;;;3.60;;
69588;SDS011;56792;50.644;17.984;2024-03-25T10:40:45;5.90;;;4.00;;
69588;SDS011;56792;50.644;17.984;2024-03-25T10:43:21;5.10;;;4.30;;
69588;SDS011;56792;50.644;17.984;2024-03-25T10:45:55;5.00;;;4.00;;
69588;SDS011;56792;50.644;17.984;2024-03-25T10:48:30;5.90;;;4.10;;
69588;SDS011;56792;50.644;17.984;2024-03-25T10:51:05;4.30;;;3.90;;
69588;SDS011;56792;50.644;17.984;2024-03-25T10:53:38;4.00;;;3.10;;
69588;SDS011;56792;50.644;17.984;2024-03-25T10:56:11;5.50;;;4.30;;
69588;SDS011;56792;50.644;17.984;2024-03-25T10:58:44;5.30;;;3.50;;
69588;SDS011;56792;50.644;17.984;2024-03-25T11:01:18;5.40;;;3.80;;
69588;SDS011;56792;50.644;17.984;2024-03-25T11:03:50;4.80;;;4.00;;
69588;SDS011;56792;50.644;17.984;2024-03-25T11:06:21;4.90;;;4.00;;
69588;SDS011;56792;50.644;17.984;2024-03-25T11:08:58;5.60;;;4.10;;
69588;SDS011;56792;50.644;17.984;2024-03-25T11:11:33;5.70;;;4.50;;
69588;SDS011;56792;50.644;17.984;2024-03-25T11:14:14;5.00;;;3.60;;
69588;SDS011;56792;50.644;17.984;2024-03-25T11:16:52;4.50;;;3.70;;
69588;SDS011;56792;50.644;17.984;2024-03-25T11:19:26;4.80;;;4.20;;
69588;SDS011;56792;50.644;17.984;2024-03-25T11:22:09;5.80;;;4.00;;
69588;SDS011;56792;50.644;17.984;2024-03-25T11:24:44;6.00;;;4.00;;
69588;SDS011;56792;50.644;17.984;2024-03-25T11:27:20;5.90;;;4.90;;
69588;SDS011;56792;50.644;17.984;2024-03-25T11:29:56;6.10;;;4.70;;
69588;SDS011;56792;50.644;17.984;2024-03-25T11:32:27;7.60;;;4.20;;
69588;SDS011;56792;50.644;17.984;2024-03-25T11:34:58;6.10;;;5.00;;
69588;SDS011;56792;50.644;17.984;2024-03-25T11:37:29;5.40;;;4.20;;
69588;SDS011;56792;50.644;17.984;2024-03-25T11:40:03;4.90;;;3.90;;
69588;SDS011;56792;50.644;17.984;2024-03-25T11:42:37;5.30;;;4.10;;
69588;SDS011;56792;50.644;17.984;2024-03-25T11:45:13;5.50;;;4.50;;
69588;SDS011;56792;50.644;17.984;2024-03-25T11:47:46;5.50;;;3.90;;
69588;SDS011;56792;50.644;17.984;2024-03-25T11:50:19;5.60;;;4.20;;
69588;SDS011;56792;50.644;17.984;2024-03-25T11:52:49;5.80;;;4.30;;
69588;SDS011;56792;50.644;17.984;2024-03-25T11:55:20;5.50;;;3.70;;
69588;SDS011;56792;50.644;17.984;2024-03-25T11:57:57;5.90;;;4.40;;
69588;SDS011;56792;50.644;17.984;2024-03-25T12:00:27;5.80;;;3.90;;
69588;SDS011;56792;50.644;17.984;2024-03-25T12:03:00;6.10;;;5.00;;
69588;SDS011;56792;50.644;17.984;2024-03-25T12:05:31;6.90;;;4.90;;
69588;SDS011;56792;50.644;17.984;2024-03-25T12:08:01;7.20;;;5.90;;
69588;SDS011;56792;50.644;17.984;2024-03-25T12:10:34;6.70;;;5.00;;
69588;SDS011;56792;50.644;17.984;2024-03-25T12:13:23;6.70;;;4.90;;
69588;SDS011;56792;50.644;17.984;2024-03-25T12:15:55;7.00;;;4.70;;
69588;SDS011;56792;50.644;17.984;2024-03-25T12:18:26;6.60;;;5.00;;
69588;SDS011;56792;50.644;17.984;2024-03-25T12:20:59;6.70;;;5.40;;
69588;SDS011;56792;50.644;17.984;2024-03-25T12:23:31;7.00;;;4.70;;
69588;SDS011;56792;50.644;17.984;2024-03-25T12:26:03;6.80;;;5.00;;
69588;SDS011;56792;50.644;17.984;2024-03-25T12:28:35;6.10;;;5.00;;
69588;SDS011;56792;50.644;17.984;2024-03-25T12:31:08;6.60;;;4.40;;
69588;SDS011;56792;50.644;17.984;2024-03-25T12:33:43;5.90;;;4.50;;
69588;SDS011;56792;50.644;17.984;2024-03-25T12:36:14;6.40;;;4.80;;
69588;SDS011;56792;50.644;17.984;2024-03-25T12:38:44;6.90;;;4.50;;
69588;SDS011;56792;50.644;17.984;2024-03-25T12:41:24;6.10;;;4.60;;
69588;SDS011;56792;50.644;17.984;2024-03-25T12:43:55;5.40;;;4.60;;
69588;SDS011;56792;50.644;17.984;2024-03-25T12:46:26;6.30;;;4.40;;
69588;SDS011;56792;50.644;17.984;2024-03-25T12:48:57;5.30;;;4.20;;
69588;SDS011;56792;50.644;17.984;2024-03-25T12:51:28;5.70;;;4.50;;
69588;SDS011;56792;50.644;17.984;2024-03-25T12:53:58;6.10;;;4.50;;
69588;SDS011;56792;50.644;17.984;2024-03-25T12:56:29;6.60;;;4.80;;
69588;SDS011;56792;50.644;17.984;2024-03-25T12:58:59;6.60;;;4.70;;
69588;SDS011;56792;50.644;17.984;2024-03-25T13:01:30;6.90;;;4.10;;
69588;SDS011;56792;50.644;17.984;2024-03-25T13:04:00;7.40;;;4.90;;
69588;SDS011;56792;50.644;17.984;2024-03-25T13:06:31;6.40;;;4.80;;
69588;SDS011;56792;50.644;17.984;2024-03-25T13:09:01;5.90;;;4.00;;
69588;SDS011;56792;50.644;17.984;2024-03-25T13:11:48;4.70;;;3.60;;
69588;SDS011;56792;50.644;17.984;2024-03-25T13:14:20;4.60;;;4.00;;
69588;SDS011;56792;50.644;17.984;2024-03-25T13:16:50;4.50;;;3.70;;
69588;SDS011;56792;50.644;17.984;2024-03-25T13:19:21;4.80;;;3.50;;
69588;SDS011;56792;50.644;17.984;2024-03-25T13:21:52;5.10;;;4.30;;
69588;SDS011;56792;50.644;17.984;2024-03-25T13:24:24;4.90;;;4.20;;
69588;SDS011;56792;50.644;17.984;2024-03-25T13:26:54;6.50;;;4.30;;
69588;SDS011;56792;50.644;17.984;2024-03-25T13:29:25;5.40;;;4.20;;
69588;SDS011;56792;50.644;17.984;2024-03-25T13:31:55;6.00;;;4.10;;
69588;SDS011;56792;50.644;17.984;2024-03-25T13:34:26;5.60;;;4.40;;
69588;SDS011;56792;50.644;17.984;2024-03-25T13:36:57;8.10;;;4.90;;
69588;SDS011;56792;50.644;17.984;2024-03-25T13:39:28;5.20;;;4.10;;
69588;SDS011;56792;50.644;17.984;2024-03-25T13:41:59;6.10;;;4.20;;
69588;SDS011;56792;50.644;17.984;2024-03-25T13:44:30;6.00;;;4.00;;
69588;SDS011;56792;50.644;17.984;2024-03-25T13:47:01;6.10;;;4.30;;
69588;SDS011;56792;50.644;17.984;2024-03-25T13:49:32;5.80;;;4.90;;
69588;SDS011;56792;50.644;17.984;2024-03-25T13:52:04;5.70;;;4.10;;
69588;SDS011;56792;50.644;17.984;2024-03-25T13:54:35;8.70;;;4.60;;
69588;SDS011;56792;50.644;17.984;2024-03-25T13:57:05;6.80;;;4.70;;
69588;SDS011;56792;50.644;17.984;2024-03-25T13:59:36;6.50;;;4.00;;
69588;SDS011;56792;50.644;17.984;2024-03-25T14:02:07;8.40;;;4.50;;
69588;SDS011;56792;50.644;17.984;2024-03-25T14:04:38;7.10;;;5.10;;
69588;SDS011;56792;50.644;17.984;2024-03-25T14:07:08;8.80;;;5.90;;
69588;SDS011;56792;50.644;17.984;2024-03-25T14:09:39;5.70;;;4.20;;
69588;SDS011;56792;50.644;17.984;2024-03-25T14:12:10;7.10;;;5.40;;
69588;SDS011;56792;50.644;17.984;2024-03-25T14:14:41;7.70;;;5.20;;
69588;SDS011;56792;50.644;17.984;2024-03-25T14:17:12;8.00;;;5.10;;
69588;SDS011;56792;50.644;17.984;2024-03-25T14:19:43;7.60;;;4.90;;
69588;SDS011;56792;50.644;17.984;2024-03-25T14:22:14;6.30;;;4.70;;
69588;SDS011;56792;50.644;17.984;2024-03-25T14:24:45;9.70;;;5.40;;
69588;SDS011;56792;50.644;17.984;2024-03-25T14:27:16;7.60;;;5.00;;
69588;SDS011;56792;50.644;17.984;2024-03-25T14:29:47;6.30;;;4.70;;
69588;SDS011;56792;50.644;17.984;2024-03-25T14:32:19;6.00;;;4.70;;
69588;SDS011;56792;50.644;17.984;2024-03-25T14:34:51;6.80;;;4.70;;
69588;SDS011;56792;50.644;17.984;2024-03-25T14:37:24;6.80;;;5.50;;
69588;SDS011;56792;50.644;17.984;2024-03-25T14:39:55;7.40;;;4.80;;
69588;SDS011;56792;50.644;17.984;2024-03-25T14:42:27;5.80;;;4.30;;
69588;SDS011;56792;50.644;17.984;2024-03-25T14:44:58;6.30;;;5.20;;
69588;SDS011;56792;50.644;17.984;2024-03-25T14:47:30;6.00;;;4.10;;
69588;SDS011;56792;50.644;17.984;2024-03-25T14:50:01;7.00;;;4.60;;
69588;SDS011;56792;50.644;17.984;2024-03-25T14:52:33;7.10;;;4.50;;
69588;SDS011;56792;50.644;17.984;2024-03-25T14:55:05;5.30;;;4.00;;
69588;SDS011;56792;50.644;17.984;2024-03-25T14:57:39;6.40;;;4.40;;